»·PEaware :: N226AN KLAS-KLAX

N226AN :: KLAS-KLAX

FLIGHT INFORMATION

Flight Status: Arrived
Operator: Privately registered:
United States
More flights under this callsign
Pilot: Romain L. (19401)
Aircraft: AIRBUS A320
(A320)
More flights by this aircraft type
Origin: KLAS McCarran Intl
United States
Destination: KLAX Los Angeles Intl
United States
More flights between these airports :: More routes between these airports
Route: +BOACH8 RIKII SHTNR ANJLL4
File this flight plan on PilotEdge
Remarks:
Altitude:
(Current/Filed)
24,000ft
Speed:
(Current/Filed)
0kts
Departed: 28-Sep-18 02:51 PM
Arrived: 28-Sep-18 03:38 PM
Distance/Time
Traveled:
205nm/0:47
Distance/Time
To Go:
Arrived

Flight Plot

Page will automatically refresh every two minutes.

Flight plan parsing failed; only flown route is shown


Map Options




Map Legend


Flown Route
Filed Route
Departure Airport
Arrival Airport
Navaid (VOR, NDB)
Fix

Horizontal Profiles

Position Reports

Time Latitude Longitude Heading Altitude Ground
Speed
28-Sep-18 14:32 36.080505 -115.136422 39 2190ft 0kts
28-Sep-18 14:33 36.080505 -115.136422 39 2190ft 0kts
28-Sep-18 14:34 36.080505 -115.136422 39 2190ft 0kts
28-Sep-18 14:35 36.080505 -115.136422 39 2190ft 0kts
28-Sep-18 14:36 36.080505 -115.136422 39 2190ft 0kts
28-Sep-18 14:37 36.080505 -115.136422 39 2190ft 0kts
28-Sep-18 14:38 36.080486 -115.136439 42 2190ft 1kts
28-Sep-18 14:39 36.080036 -115.136563 318 2190ft 1kts
28-Sep-18 14:40 36.079973 -115.136476 310 2190ft 0kts
28-Sep-18 14:41 36.079973 -115.136476 311 2190ft 0kts
28-Sep-18 14:42 36.079973 -115.136476 311 2190ft 0kts
28-Sep-18 14:43 36.079874 -115.136863 205 2190ft 5kts
28-Sep-18 14:44 36.078329 -115.136531 255 2190ft 9kts
28-Sep-18 14:45 36.078263 -115.141402 270 2190ft 13kts
28-Sep-18 14:46 36.077591 -115.144364 274 2190ft 11kts
28-Sep-18 14:47 36.077930 -115.149332 275 2190ft 17kts
28-Sep-18 14:48 36.078034 -115.156448 271 2190ft 23kts
28-Sep-18 14:49 36.077437 -115.161234 186 2190ft 0kts
28-Sep-18 14:50 36.077437 -115.161234 186 2190ft 0kts
28-Sep-18 14:51 36.077437 -115.161234 186 2190ft 0kts
28-Sep-18 14:52 36.076450 -115.160802 109 2190ft 9kts
28-Sep-18 14:53 36.076496 -115.128732 89 3073ft 180kts
28-Sep-18 14:54 36.076005 -115.055617 91 5696ft 260kts
28-Sep-18 14:55 36.070165 -114.963315 122 6944ft 276kts
28-Sep-18 14:56 36.003927 -114.919815 160 9241ft 286kts
28-Sep-18 14:57 35.928686 -114.941111 224 11441ft 342kts
28-Sep-18 14:58 35.866942 -115.018028 224 13669ft 366kts
28-Sep-18 14:59 35.798047 -115.110386 231 16357ft 380kts
28-Sep-18 15:00 35.732095 -115.212009 231 18738ft 389kts
28-Sep-18 15:01 35.650811 -115.294156 193 20509ft 403kts
28-Sep-18 15:02 35.538028 -115.300576 185 22575ft 417kts
28-Sep-18 15:03 35.433796 -115.354021 211 23983ft 417kts
28-Sep-18 15:04 35.331159 -115.428652 211 23995ft 450kts
28-Sep-18 15:05 35.225209 -115.505311 211 23998ft 450kts
28-Sep-18 15:06 35.120806 -115.584878 221 23981ft 450kts
28-Sep-18 15:07 35.044809 -115.680131 226 24014ft 449kts
28-Sep-18 15:08 34.964882 -115.782071 226 24009ft 452kts
28-Sep-18 15:09 34.884774 -115.883949 226 23986ft 456kts
28-Sep-18 15:10 34.810450 -115.978125 226 23496ft 419kts
28-Sep-18 15:11 34.741246 -116.065904 226 22690ft 384kts
28-Sep-18 15:12 34.669283 -116.157641 226 21710ft 379kts
28-Sep-18 15:13 34.598111 -116.248029 226 20725ft 374kts
28-Sep-18 15:14 34.527926 -116.336901 226 19758ft 369kts
28-Sep-18 15:15 34.458481 -116.424604 226 18795ft 365kts
28-Sep-18 15:16 34.399155 -116.520484 243 19331ft 370kts
28-Sep-18 15:17 34.353205 -116.631851 243 21890ft 383kts
28-Sep-18 15:18 34.314821 -116.725851 243 23689ft 390kts
28-Sep-18 15:19 34.269620 -116.838271 243 23046ft 390kts
28-Sep-18 15:20 34.223998 -116.951178 243 21573ft 373kts
28-Sep-18 15:21 34.189375 -117.063679 250 19689ft 358kts
28-Sep-18 15:22 34.159452 -117.173857 250 17838ft 345kts
28-Sep-18 15:23 34.130275 -117.279805 250 16044ft 334kts
28-Sep-18 15:24 34.102037 -117.382349 251 14292ft 324kts
28-Sep-18 15:25 34.077745 -117.480015 251 12755ft 315kts
28-Sep-18 15:26 34.046358 -117.573070 245 11270ft 303kts
28-Sep-18 15:27 34.016565 -117.655839 244 10124ft 285kts
28-Sep-18 15:28 34.002168 -117.730940 261 9293ft 273kts
28-Sep-18 15:29 33.993731 -117.817650 262 8055ft 267kts
28-Sep-18 15:30 33.985498 -117.902178 262 6773ft 263kts
28-Sep-18 15:31 33.978774 -117.988903 262 5074ft 271kts
28-Sep-18 15:32 33.970812 -118.063183 262 4979ft 227kts
28-Sep-18 15:33 33.963710 -118.130519 262 4365ft 216kts
28-Sep-18 15:34 33.956962 -118.194647 262 3205ft 190kts
28-Sep-18 15:35 33.951818 -118.243870 262 2388ft 127kts
28-Sep-18 15:36 33.947618 -118.284220 261 1753ft 125kts
28-Sep-18 15:37 33.943420 -118.324582 260 1108ft 124kts
28-Sep-18 15:38 33.939311 -118.364247 261 473ft 123kts
28-Sep-18 15:39 33.935701 -118.398954 262 134ft 57kts
28-Sep-18 15:40 33.935799 -118.405963 289 134ft 0kts
28-Sep-18 15:41 33.935942 -118.406860 272 134ft 12kts
28-Sep-18 15:42 33.936671 -118.408938 348 134ft 8kts
28-Sep-18 15:43 33.938370 -118.409134 18 134ft 0kts
28-Sep-18 15:44 33.938370 -118.409134 18 134ft 0kts
28-Sep-18 15:45 33.938370 -118.409134 18 134ft 0kts
28-Sep-18 15:46 33.939145 -118.404674 83 134ft 21kts
28-Sep-18 15:47 33.941060 -118.403335 304 134ft 4kts
28-Sep-18 15:48 33.941107 -118.403811 264 134ft 0kts
28-Sep-18 15:49 33.941107 -118.403811 264 134ft 0kts
28-Sep-18 15:50 33.941107 -118.403811 264 134ft 0kts

Navigation Log

Ident Type
Flight plan parsing failed, navigation log unavailable